createdAt,value
2018-10-18T00:01:02.613Z,72.98
2018-10-18T00:02:13.090Z,72.98
2018-10-18T00:03:23.911Z,73.08
2018-10-18T00:04:34.578Z,73.08
2018-10-18T00:05:44.723Z,73.08
2018-10-18T00:06:54.902Z,73.08
2018-10-18T00:08:05.226Z,73.08
2018-10-18T00:09:16.040Z,72.98
2018-10-18T00:10:26.188Z,73.08
2018-10-18T00:12:50.031Z,72.88
2018-10-18T00:14:00.445Z,72.88
2018-10-18T00:15:11.013Z,72.88
2018-10-18T00:16:21.177Z,72.88
2018-10-18T00:17:31.365Z,72.98
2018-10-18T00:18:41.513Z,72.79
2018-10-18T00:19:51.638Z,73.04
2018-10-18T00:21:01.937Z,72.94
2018-10-18T00:22:12.081Z,73.04
2018-10-18T00:23:22.226Z,73.14
2018-10-18T00:24:32.469Z,73.23
2018-10-18T00:25:42.617Z,73.33
2018-10-18T00:26:52.790Z,73.33
2018-10-18T00:28:04.178Z,73.14
2018-10-18T00:29:14.305Z,73.8
2018-10-18T00:30:24.490Z,73.8
2018-10-18T00:31:34.375Z,73.71
2018-10-18T00:32:44.636Z,73.61
2018-10-18T00:33:54.824Z,73.43
2018-10-18T00:35:04.971Z,73.43
2018-10-18T00:36:15.372Z,73.71
2018-10-18T00:37:28.300Z,73.43
2018-10-18T00:38:38.572Z,73.61
2018-10-18T00:39:48.877Z,73.8
2018-10-18T00:40:58.763Z,73.99
2018-10-18T00:42:09.054Z,73.8
2018-10-18T00:43:19.793Z,73.99
2018-10-18T00:44:29.952Z,73.9
2018-10-18T00:45:39.861Z,74.09
2018-10-18T00:46:50.047Z,73.99
2018-10-18T00:48:00.443Z,74.28
2018-10-18T00:49:10.889Z,74.28
2018-10-18T00:50:21.181Z,73.9
2018-10-18T00:51:31.336Z,73.99
2018-10-18T00:52:41.468Z,74.19
2018-10-18T00:53:51.589Z,74.38
2018-10-18T00:55:01.920Z,74.09
2018-10-18T00:56:12.257Z,74.19
2018-10-18T00:57:22.680Z,74.19
2018-10-18T00:58:32.872Z,74.28
2018-10-18T00:59:43.022Z,74.48
2018-10-18T01:00:53.232Z,73.99
2018-10-18T01:02:03.164Z,73.99
2018-10-18T01:03:13.731Z,74.09
2018-10-18T01:04:23.881Z,74.09
2018-10-18T01:05:34.142Z,74.28
2018-10-18T01:06:44.045Z,74.28
2018-10-18T01:07:54.290Z,74.48
2018-10-18T01:09:04.608Z,74.66
2018-10-18T01:10:14.779Z,74.38
2018-10-18T01:11:24.927Z,74.28
2018-10-18T01:12:35.370Z,74.38
2018-10-18T01:13:46.118Z,74.76
2018-10-18T01:14:56.436Z,74.15
2018-10-18T01:16:06.673Z,74.34
2018-10-18T01:17:16.917Z,74.24
2018-10-18T01:18:27.107Z,74.44
2018-10-18T01:19:37.329Z,73.96
2018-10-18T01:20:47.503Z,74.73
2018-10-18T01:21:57.724Z,74.24
2018-10-18T01:23:07.934Z,74.53
2018-10-18T01:24:18.390Z,74.63
2018-10-18T01:25:28.621Z,74.44
2018-10-18T01:26:38.749Z,74.63
2018-10-18T01:27:48.934Z,74.91
2018-10-18T01:28:59.145Z,74.63
2018-10-18T01:30:09.586Z,74.91
2018-10-18T01:31:20.239Z,75.1
2018-10-18T01:32:30.380Z,75.3
2018-10-18T01:33:40.545Z,75.3
2018-10-18T01:34:50.936Z,75.2
2018-10-18T01:36:01.159Z,75.39
2018-10-18T01:37:11.690Z,75.3
2018-10-18T01:38:22.048Z,75.2
2018-10-18T01:39:32.191Z,75.1
2018-10-18T01:40:42.168Z,75.2
2018-10-18T01:41:52.350Z,75.59
2018-10-18T01:43:02.759Z,75.39
2018-10-18T01:44:13.087Z,75.1
2018-10-18T01:45:23.525Z,75.1
2018-10-18T01:46:33.717Z,75.59
2018-10-18T01:47:43.872Z,75.2
2018-10-18T01:48:54.048Z,75.2
2018-10-18T01:50:04.300Z,75.39
2018-10-18T01:54:11.019Z,75.87
2018-10-18T01:55:21.810Z,75.78
2018-10-18T01:56:31.925Z,75.59
2018-10-18T01:57:42.044Z,75.54
2018-10-18T01:58:52.171Z,75.35
2018-10-18T02:00:02.366Z,75.93
2018-10-18T02:01:12.925Z,75.87
2018-10-18T02:02:23.041Z,75.54
2018-10-18T02:03:33.167Z,75.64
2018-10-18T02:04:43.287Z,75.83
2018-10-18T02:05:53.158Z,75.83
2018-10-18T02:07:03.450Z,75.54
2018-10-18T02:08:13.816Z,75.54
2018-10-18T02:09:23.900Z,75.64
2018-10-18T02:10:34.023Z,76.12
2018-10-18T02:11:44.263Z,76.03
2018-10-18T02:12:54.455Z,75.93
2018-10-18T02:14:04.316Z,76.03
2018-10-18T02:15:14.432Z,76.12
2018-10-18T02:16:24.299Z,76.21
2018-10-18T02:17:34.055Z,76.21
2018-10-18T02:18:44.183Z,76.4
2018-10-18T02:19:54.073Z,76.6
2018-10-18T02:21:04.191Z,76.4
2018-10-18T02:22:14.310Z,76.6
2018-10-18T02:23:24.423Z,76.21
2018-10-18T02:24:34.542Z,76.69
2018-10-18T02:25:44.705Z,76.12
2018-10-18T02:26:54.813Z,76.03
2018-10-18T02:28:04.927Z,76.31
2018-10-18T02:29:15.044Z,76.12
2018-10-18T02:30:25.304Z,76.31
2018-10-18T02:31:35.425Z,76.12
2018-10-18T02:32:45.541Z,75.93
2018-10-18T02:33:55.676Z,76.5
2018-10-18T02:35:05.804Z,76.12
2018-10-18T02:36:16.235Z,76.31
2018-10-18T02:37:26.930Z,76.6
2018-10-18T02:38:37.053Z,76.69
2018-10-18T02:39:47.173Z,76.79
2018-10-18T02:40:57.392Z,76.4
2018-10-18T02:42:07.724Z,76.4
2018-10-18T02:43:18.357Z,76.69
2018-10-18T02:44:28.477Z,77.17
2018-10-18T02:45:38.591Z,76.88
2018-10-18T02:46:48.740Z,76.98
2018-10-18T02:47:58.914Z,76.98
2018-10-18T02:49:09.382Z,76.98
2018-10-18T02:50:19.524Z,77.17
2018-10-18T02:51:29.687Z,77.08
2018-10-18T02:52:39.798Z,77.08
2018-10-18T02:53:49.909Z,76.98
2018-10-18T02:55:00.063Z,77.08
2018-10-18T02:56:10.230Z,77.08
2018-10-18T02:57:20.343Z,77.08
2018-10-18T02:58:30.469Z,77.17
2018-10-18T02:59:40.781Z,77.17
2018-10-18T03:00:50.900Z,77.08
2018-10-18T03:02:00.759Z,76.88
2018-10-18T03:03:10.865Z,77.17
2018-10-18T03:04:20.932Z,77.55
2018-10-18T03:05:30.712Z,77.55
2018-10-18T03:06:40.823Z,77.36
2018-10-18T03:07:50.944Z,77.45
2018-10-18T03:09:01.065Z,77.36
2018-10-18T03:10:11.190Z,77.26
2018-10-18T03:11:21.306Z,77.45
2018-10-18T03:12:31.434Z,77.65
2018-10-18T03:13:41.558Z,77.55
2018-10-18T03:14:51.724Z,77.65
2018-10-18T03:16:01.990Z,77.36
2018-10-18T03:17:12.773Z,77.45
2018-10-18T03:18:22.925Z,77.55
2018-10-18T03:19:33.058Z,77.65
2018-10-18T03:20:43.204Z,77.65
2018-10-18T03:21:53.323Z,77.65
2018-10-18T03:23:03.180Z,77.36
2018-10-18T03:24:13.636Z,77.26
2018-10-18T03:25:24.268Z,77.36
2018-10-18T03:26:34.389Z,77.45
2018-10-18T03:27:44.504Z,77.55
2018-10-18T03:28:54.618Z,77.36
2018-10-18T03:30:04.907Z,77.17
2018-10-18T03:31:15.651Z,77.45
2018-10-18T03:32:25.776Z,77.36
2018-10-18T03:33:35.911Z,77.74
2018-10-18T03:34:46.035Z,77.45
2018-10-18T03:35:56.177Z,77.45
2018-10-18T03:37:06.472Z,77.65
2018-10-18T03:38:16.600Z,77.36
2018-10-18T03:39:26.726Z,77.26
2018-10-18T03:40:36.861Z,77.26
2018-10-18T03:41:47.206Z,77.45
2018-10-18T03:42:57.476Z,76.98
2018-10-18T03:44:07.602Z,77.17
2018-10-18T03:45:17.721Z,76.98
2018-10-18T03:46:27.839Z,77.08
2018-10-18T03:47:37.956Z,76.79
2018-10-18T03:48:48.061Z,77.17
2018-10-18T03:49:59.162Z,76.98
2018-10-18T03:51:09.320Z,77.08
2018-10-18T03:52:19.451Z,76.98
2018-10-18T03:53:29.580Z,77.26
2018-10-18T03:54:39.686Z,77.26
2018-10-18T03:55:49.814Z,77.36
2018-10-18T03:56:59.923Z,77.36
2018-10-18T03:58:10.101Z,78.03
2018-10-18T03:59:20.227Z,77.84
2018-10-18T04:00:30.452Z,77.45
2018-10-18T04:01:40.577Z,77.84
2018-10-18T04:02:50.714Z,77.94
2018-10-18T04:04:00.843Z,78.03
2018-10-18T04:05:10.965Z,77.45
2018-10-18T04:06:21.355Z,77.45
2018-10-18T04:07:31.151Z,77.36
2018-10-18T04:08:41.272Z,77.65
2018-10-18T04:09:51.382Z,77.26
2018-10-18T04:11:01.505Z,77.08
2018-10-18T04:12:11.883Z,76.98
2018-10-18T04:13:22.848Z,77.26
2018-10-18T04:14:33.128Z,77.55
2018-10-18T04:15:43.280Z,77.26
2018-10-18T04:16:53.400Z,77.45
2018-10-18T04:18:03.817Z,77.45
2018-10-18T04:19:14.885Z,77.26
2018-10-18T04:20:24.996Z,77.17
2018-10-18T04:21:35.141Z,77.17
2018-10-18T04:22:45.265Z,77.36
2018-10-18T04:23:55.738Z,77.45
2018-10-18T04:25:05.793Z,77.45
2018-10-18T04:26:15.912Z,77.45
2018-10-18T04:27:26.044Z,77.26
2018-10-18T04:28:36.217Z,77.08
2018-10-18T04:29:46.297Z,77.45
2018-10-18T04:30:56.439Z,77.26
2018-10-18T04:32:06.558Z,77.55
2018-10-18T04:33:16.670Z,77.65
2018-10-18T04:34:26.798Z,77.55
2018-10-18T04:35:36.939Z,77.74
2018-10-18T04:36:47.068Z,77.74
2018-10-18T04:37:57.202Z,77.55
2018-10-18T04:39:07.558Z,77.36
2018-10-18T04:40:17.699Z,77.17
2018-10-18T04:41:27.833Z,78.03
2018-10-18T04:42:37.958Z,77.74
2018-10-18T04:43:48.092Z,78.13
2018-10-18T04:44:58.446Z,78.22
2018-10-18T04:46:08.560Z,77.94
2018-10-18T04:47:18.861Z,78.13
2018-10-18T04:48:29.910Z,78.13
2018-10-18T04:49:40.865Z,78.31
2018-10-18T04:50:51.185Z,78.22
2018-10-18T04:52:03.337Z,78.22
2018-10-18T04:53:13.482Z,78.31
2018-10-18T04:54:23.601Z,78.6
2018-10-18T04:55:33.730Z,78.47
2018-10-18T04:56:43.981Z,78.99
2018-10-18T04:57:54.536Z,79.27
2018-10-18T04:59:04.646Z,79.17
2018-10-18T05:00:14.795Z,78.89
2018-10-18T05:01:25.143Z,78.75
2018-10-18T05:02:35.592Z,79.14
2018-10-18T05:03:46.254Z,79.23
2018-10-18T05:04:56.480Z,78.94
2018-10-18T05:06:06.649Z,79.43
2018-10-18T05:07:16.982Z,79.33
2018-10-18T05:08:27.446Z,79.52
2018-10-18T05:09:37.554Z,79.9
2018-10-18T05:10:47.676Z,79.61
2018-10-18T05:11:57.790Z,79.14
2018-10-18T05:13:07.816Z,79.52
2018-10-18T05:14:18.485Z,79.71
2018-10-18T05:15:28.636Z,80.09
2018-10-18T05:16:38.753Z,79.9
2018-10-18T05:17:48.877Z,80.09
2018-10-18T05:18:59.029Z,81.04
2018-10-18T05:20:09.626Z,81.52
2018-10-18T05:21:19.754Z,81.33
2018-10-18T05:22:29.868Z,82
2018-10-18T05:23:40.036Z,81.52
2018-10-18T05:24:50.435Z,81.9
2018-10-18T05:26:00.853Z,82.95
2018-10-18T05:27:10.973Z,83.24
2018-10-18T05:28:21.081Z,83.62
2018-10-18T05:29:31.195Z,84
2018-10-18T05:30:41.313Z,83.81
2018-10-18T05:31:51.563Z,83.72
2018-10-18T05:33:01.801Z,84.1
2018-10-18T05:34:11.916Z,84.48
2018-10-18T05:35:22.478Z,84.29
2018-10-18T05:36:32.601Z,84.96
2018-10-18T05:37:42.846Z,84.48
2018-10-18T05:38:53.671Z,84.86
2018-10-18T05:40:03.810Z,84.48
2018-10-18T05:41:13.957Z,84.39
2018-10-18T05:42:24.084Z,84.67
2018-10-18T05:43:33.937Z,84.48
2018-10-18T05:44:44.060Z,84.96
2018-10-18T05:45:54.181Z,84.86
2018-10-18T05:47:04.341Z,85.34
2018-10-18T05:48:14.942Z,85.63
2018-10-18T05:49:25.070Z,85.53
2018-10-18T05:50:35.189Z,85.53
2018-10-18T05:51:45.308Z,86.05
2018-10-18T05:52:55.476Z,86.05
2018-10-18T05:54:05.614Z,86.2
2018-10-18T05:55:16.642Z,86.49
2018-10-18T05:56:26.824Z,86.49
2018-10-18T05:57:36.960Z,86.53
2018-10-18T05:58:46.817Z,86.43
2018-10-18T05:59:56.938Z,86.72
2018-10-18T06:01:07.285Z,86.53
2018-10-18T06:02:17.994Z,86.68
2018-10-18T06:03:28.121Z,86.82
2018-10-18T06:04:38.245Z,87.01
2018-10-18T06:05:48.364Z,87.39
2018-10-18T06:06:58.550Z,87.29
2018-10-18T06:08:08.941Z,87.68
2018-10-18T06:09:19.062Z,87.96
2018-10-18T06:10:29.320Z,88.06
2018-10-18T06:11:40.179Z,87.77
2018-10-18T06:12:50.326Z,87.68
2018-10-18T06:14:00.204Z,87.96
2018-10-18T06:15:10.340Z,88.34
2018-10-18T06:16:20.443Z,88.25
2018-10-18T06:17:30.565Z,88.82
2018-10-18T06:18:40.679Z,88.82
2018-10-18T06:19:50.799Z,88.92
2018-10-18T06:21:01.135Z,88.34
2018-10-18T06:22:10.992Z,88.44
2018-10-18T06:23:21.401Z,88.34
2018-10-18T06:24:32.132Z,88.34
2018-10-18T06:25:42.253Z,88.58
2018-10-18T06:26:52.235Z,88.77
2018-10-18T06:28:02.356Z,88.58
2018-10-18T06:29:12.657Z,88.87
2018-10-18T06:30:23.054Z,89.34
2018-10-18T06:31:33.180Z,88.77
2018-10-18T06:32:43.294Z,89.44
2018-10-18T06:33:53.449Z,89.73
2018-10-18T06:35:03.412Z,89.63
2018-10-18T06:36:13.866Z,89.92
2018-10-18T06:37:24.260Z,90.2
2018-10-18T06:38:34.549Z,90.78
2018-10-18T06:39:44.663Z,91.25
2018-10-18T06:40:54.834Z,90.88
2018-10-18T06:42:05.114Z,91.06
2018-10-18T06:43:14.953Z,91.25
2018-10-18T06:44:25.339Z,91.16
2018-10-18T06:45:35.457Z,91.25
2018-10-18T06:46:45.273Z,91.16
2018-10-18T06:47:56.074Z,91.45
2018-10-18T06:49:07.367Z,91.35
2018-10-18T06:50:18.218Z,91.45
2018-10-18T06:51:28.531Z,91.25
2018-10-18T06:52:38.388Z,91.83
2018-10-18T06:53:48.263Z,91.83
2018-10-18T06:54:58.597Z,91.83
2018-10-18T06:56:08.929Z,91.64
2018-10-18T06:57:18.805Z,91.74
2018-10-18T06:58:28.924Z,92.4
2018-10-18T06:59:38.743Z,91.93
2018-10-18T07:00:49.065Z,91.83
2018-10-18T07:01:59.394Z,91.83
2018-10-18T07:03:09.779Z,92.3
2018-10-18T07:04:19.929Z,92.59
2018-10-18T07:05:30.058Z,92.5
2018-10-18T07:06:40.178Z,92.79
2018-10-18T07:07:50.319Z,92.02
2018-10-18T07:09:00.215Z,92.4
2018-10-18T07:10:10.500Z,91.45
2018-10-18T07:11:20.645Z,91.93
2018-10-18T07:12:30.780Z,92.59
2018-10-18T07:13:40.736Z,92.11
2018-10-18T07:14:50.883Z,91.93
2018-10-18T07:16:00.997Z,92.4
2018-10-18T07:17:11.126Z,92.69
2018-10-18T07:18:21.339Z,92.59
2018-10-18T07:19:31.466Z,92.3
2018-10-18T07:20:41.588Z,92.5
2018-10-18T07:21:51.782Z,92.69
2018-10-18T07:23:01.903Z,92.97
2018-10-18T07:24:12.072Z,92.88
2018-10-18T07:25:22.792Z,92.11
2018-10-18T07:26:33.036Z,92.11
2018-10-18T07:27:43.153Z,92.11
2018-10-18T07:28:53.277Z,92.3
2018-10-18T07:30:03.557Z,92.5
2018-10-18T07:31:14.173Z,92.59
2018-10-18T07:32:24.300Z,92.4
2018-10-18T07:33:34.431Z,92.3
2018-10-18T07:34:44.622Z,92.4
2018-10-18T07:35:54.920Z,92.79
2018-10-18T07:37:05.230Z,92.69
2018-10-18T07:38:15.366Z,92.11
2018-10-18T07:39:25.483Z,92.3
2018-10-18T07:40:35.638Z,92.11
2018-10-18T07:41:45.771Z,92.21
2018-10-18T07:42:55.919Z,92.5
2018-10-18T07:44:06.058Z,92.5
2018-10-18T07:45:16.187Z,92.26
2018-10-18T07:46:26.334Z,92.5
2018-10-18T07:47:36.457Z,92.21
2018-10-18T07:48:46.624Z,92.3
2018-10-18T07:49:56.756Z,92.11
2018-10-18T07:51:06.914Z,91.64
2018-10-18T07:52:17.274Z,91.83
2018-10-18T07:53:27.557Z,91.16
2018-10-18T07:54:38.047Z,91.74
2018-10-18T07:55:48.181Z,91.83
2018-10-18T07:56:58.353Z,91.64
2018-10-18T07:58:08.474Z,91.54
2018-10-18T07:59:18.610Z,91.64
2018-10-18T08:00:28.855Z,92.02
2018-10-18T08:01:39.129Z,91.06
2018-10-18T08:02:49.248Z,90.97
2018-10-18T08:03:59.126Z,90.97
2018-10-18T08:05:09.255Z,91.06
2018-10-18T08:06:19.382Z,90.97
2018-10-18T08:07:29.526Z,90.97
2018-10-18T08:08:39.643Z,90.97
2018-10-18T08:09:49.846Z,91.25
2018-10-18T08:11:00.271Z,91.16
2018-10-18T08:12:10.895Z,90.78
2018-10-18T08:13:21.154Z,90.73
2018-10-18T08:14:31.280Z,90.49
2018-10-18T08:15:41.419Z,90.68
2018-10-18T08:16:51.697Z,90.68
2018-10-18T08:18:01.906Z,90.73
2018-10-18T08:19:12.281Z,90.53
2018-10-18T08:20:23.210Z,90.59
2018-10-18T08:21:33.346Z,90.49
2018-10-18T08:22:43.748Z,90.78
2018-10-18T08:23:54.218Z,90.53
2018-10-18T08:25:04.495Z,90.73
2018-10-18T08:26:15.214Z,90.63
2018-10-18T08:27:25.339Z,90.73
2018-10-18T08:28:35.229Z,91.11
2018-10-18T08:29:45.091Z,91.16
2018-10-18T08:30:55.261Z,90.97
2018-10-18T08:32:05.650Z,90.97
2018-10-18T08:33:15.780Z,91.54
2018-10-18T08:34:25.897Z,91.35
2018-10-18T08:35:36.013Z,91.93
2018-10-18T08:36:46.342Z,91.45
2018-10-18T08:37:56.896Z,91.64
2018-10-18T08:39:08.158Z,91.64
2018-10-18T08:40:17.915Z,91.64
2018-10-18T08:41:28.052Z,91.54
2018-10-18T08:42:38.176Z,91.49
2018-10-18T08:43:48.383Z,91.49
2018-10-18T08:44:58.800Z,91.68
2018-10-18T08:46:08.957Z,91.39
2018-10-18T08:47:19.072Z,91.49
2018-10-18T08:48:29.194Z,91.59
2018-10-18T08:49:38.968Z,91.59
2018-10-18T08:50:49.479Z,91.59
2018-10-18T08:51:59.591Z,91.49
2018-10-18T08:53:09.713Z,91.59
2018-10-18T08:54:19.898Z,91.49
2018-10-18T08:55:30.199Z,91.49
2018-10-18T08:56:40.657Z,91.49
2018-10-18T08:57:50.780Z,91.68
2018-10-18T08:59:00.950Z,91.88
2018-10-18T09:00:11.306Z,91.78
2018-10-18T09:01:21.420Z,91.59
2018-10-18T09:02:31.536Z,91.59
2018-10-18T09:03:41.668Z,91.49
2018-10-18T09:04:51.536Z,91.78
2018-10-18T09:06:01.661Z,91.59
2018-10-18T09:07:11.979Z,91.68
2018-10-18T09:08:22.378Z,91.39
2018-10-18T09:09:32.509Z,91.49
2018-10-18T09:10:42.623Z,91.39
2018-10-18T09:11:52.497Z,91.68
2018-10-18T09:13:02.710Z,91.68
2018-10-18T09:14:13.320Z,91.49
2018-10-18T09:15:23.488Z,91.39
2018-10-18T09:16:33.651Z,91.59
2018-10-18T09:17:43.769Z,91.68
2018-10-18T09:18:53.916Z,91.88
2018-10-18T09:20:04.234Z,91.68
2018-10-18T09:21:14.368Z,91.88
2018-10-18T09:22:24.311Z,91.68
2018-10-18T09:23:34.493Z,91.68
2018-10-18T09:24:44.798Z,91.3
2018-10-18T09:25:54.967Z,91.88
2018-10-18T09:27:05.101Z,91.44
2018-10-18T09:28:15.236Z,91.49
2018-10-18T09:29:25.378Z,91.73
2018-10-18T09:30:35.486Z,90.96
2018-10-18T09:31:45.615Z,91.06
2018-10-18T09:32:55.505Z,91.06
2018-10-18T09:34:06.084Z,91.25
2018-10-18T09:35:16.213Z,90.67
2018-10-18T09:36:26.376Z,90.87
2018-10-18T09:37:36.504Z,90.67
2018-10-18T09:38:46.629Z,90.77
2018-10-18T09:39:56.771Z,90.77
2018-10-18T09:41:06.906Z,90.77
2018-10-18T09:42:17.035Z,90.01
2018-10-18T09:43:27.186Z,90.39
2018-10-18T09:44:37.376Z,90.1
2018-10-18T09:45:47.762Z,90.01
2018-10-18T09:46:58.070Z,90.2
2018-10-18T09:48:08.202Z,90.3
2018-10-18T09:49:18.613Z,90.05
2018-10-18T09:50:28.805Z,89.67
2018-10-18T09:51:38.951Z,89.86
2018-10-18T09:52:49.279Z,89.67
2018-10-18T09:53:59.590Z,90.05
2018-10-18T09:55:10.229Z,89.86
2018-10-18T09:56:21.135Z,90.15
2018-10-18T09:57:31.255Z,90.05
2018-10-18T09:58:41.130Z,89.67
2018-10-18T09:59:51.266Z,89.86
2018-10-18T10:01:01.440Z,89.95
2018-10-18T10:02:11.946Z,89.67
2018-10-18T10:03:22.058Z,89.86
2018-10-18T10:04:33.001Z,89.86
2018-10-18T10:05:43.124Z,89.76
2018-10-18T10:06:53.256Z,89.95
2018-10-18T10:08:03.503Z,89.95
2018-10-18T10:09:13.634Z,89.29
2018-10-18T10:10:26.790Z,89.38
2018-10-18T10:12:54.937Z,89.09
2018-10-18T10:14:05.380Z,89.19
2018-10-18T10:15:15.533Z,89.58
2018-10-18T10:16:25.654Z,89
2018-10-18T10:17:35.939Z,89.09
2018-10-18T10:18:46.612Z,89.23
2018-10-18T10:19:56.759Z,88.95
2018-10-18T10:21:06.875Z,88.95
2018-10-18T10:22:16.996Z,89.04
2018-10-18T10:23:27.145Z,88.85
2018-10-18T10:24:37.499Z,89.14
2018-10-18T10:25:48.216Z,88.76
2018-10-18T10:26:58.563Z,89.04
2018-10-18T10:28:08.726Z,88.95
2018-10-18T10:29:18.864Z,89.09
2018-10-18T10:30:29.159Z,88.9
2018-10-18T10:31:39.704Z,88.85
2018-10-18T10:32:49.954Z,88.95
2018-10-18T10:34:00.801Z,89.04
2018-10-18T10:35:11.135Z,89.14
2018-10-18T10:36:20.975Z,88.9
2018-10-18T10:37:31.102Z,89.62
2018-10-18T10:38:41.386Z,89.48
2018-10-18T10:39:51.645Z,89.52
2018-10-18T10:41:01.667Z,89.43
2018-10-18T10:42:11.868Z,89.95
2018-10-18T10:43:22.617Z,89.33
2018-10-18T10:44:32.606Z,89.52
2018-10-18T10:45:42.883Z,89.33
2018-10-18T10:46:53.787Z,89.33
2018-10-18T10:48:04.078Z,89.14
2018-10-18T10:49:14.900Z,88.95
2018-10-18T10:50:25.494Z,88.47
2018-10-18T10:51:35.621Z,88.66
2018-10-18T10:52:45.772Z,88.47
2018-10-18T10:53:55.965Z,88.56
2018-10-18T10:55:06.307Z,88.09
2018-10-18T10:56:16.709Z,88.09
2018-10-18T10:57:27.158Z,87.9
2018-10-18T10:58:37.294Z,88.18
2018-10-18T10:59:47.437Z,87.9
2018-10-18T11:00:57.596Z,87.99
2018-10-18T11:02:07.841Z,88.18
2018-10-18T11:03:18.560Z,88.09
2018-10-18T11:04:28.791Z,87.61
2018-10-18T11:05:38.934Z,87.61
2018-10-18T11:06:49.054Z,87.32
2018-10-18T11:07:59.219Z,87.55
2018-10-18T11:09:09.809Z,87.7
2018-10-18T11:10:20.769Z,87.8
2018-10-18T11:11:30.897Z,87.13
2018-10-18T11:12:41.042Z,87.08
2018-10-18T11:13:51.427Z,86.94
2018-10-18T11:15:01.801Z,86.74
2018-10-18T11:16:12.215Z,87.03
2018-10-18T11:17:22.669Z,86.94
2018-10-18T11:18:32.906Z,87.37
2018-10-18T11:19:43.038Z,86.69
2018-10-18T11:20:53.226Z,86.41
2018-10-18T11:22:03.477Z,86.5
2018-10-18T11:23:13.631Z,86.5
2018-10-18T11:24:23.928Z,86.5
2018-10-18T11:25:34.248Z,86.31
2018-10-18T11:26:44.395Z,86.5
2018-10-18T11:27:54.641Z,86.21
2018-10-18T11:29:04.775Z,86.6
2018-10-18T11:30:15.123Z,86.41
2018-10-18T11:31:25.543Z,86.21
2018-10-18T11:32:35.891Z,86.02
2018-10-18T11:33:46.012Z,86.79
2018-10-18T11:34:55.903Z,86.21
2018-10-18T11:36:05.974Z,86.31
2018-10-18T11:37:16.810Z,86.21
2018-10-18T11:38:26.975Z,86.12
2018-10-18T11:39:37.218Z,86.5
2018-10-18T11:40:47.957Z,86.21
2018-10-18T11:41:58.940Z,85.74
2018-10-18T11:43:10.131Z,85.93
2018-10-18T11:44:20.628Z,85.35
2018-10-18T11:45:32.293Z,85.83
2018-10-18T11:46:44.305Z,85.64
2018-10-18T11:47:59.292Z,85.25
2018-10-18T11:49:10.498Z,85.64
2018-10-18T11:50:21.002Z,85.3
2018-10-18T11:51:31.281Z,85.39
2018-10-18T11:52:42.101Z,85.3
2018-10-18T11:53:52.225Z,84.72
2018-10-18T11:55:02.687Z,84.72
2018-10-18T11:56:13.078Z,84.91
2018-10-18T11:57:23.652Z,85.01
2018-10-18T11:58:33.855Z,84.68
2018-10-18T11:59:44.000Z,84.88
2018-10-18T12:00:53.855Z,84.63
2018-10-18T12:02:04.162Z,84.53
2018-10-18T12:03:14.917Z,84.44
2018-10-18T12:04:25.104Z,84.53
2018-10-18T12:05:35.229Z,84.05
2018-10-18T12:06:45.359Z,84.25
2018-10-18T12:07:55.574Z,84.72
2018-10-18T12:09:05.622Z,84.34
2018-10-18T12:10:15.748Z,84.15
2018-10-18T12:11:25.892Z,84.15
2018-10-18T12:12:36.012Z,84.05
2018-10-18T12:13:46.144Z,84.05
2018-10-18T12:14:56.296Z,83.86
2018-10-18T12:16:06.438Z,84.15
2018-10-18T12:17:16.722Z,83.76
2018-10-18T12:18:26.960Z,84.05
2018-10-18T12:19:37.113Z,83.58
2018-10-18T12:20:47.258Z,83.95
2018-10-18T12:21:57.423Z,83.76
2018-10-18T12:23:07.642Z,83.61
2018-10-18T12:24:18.188Z,83.33
2018-10-18T12:25:28.344Z,83.52
2018-10-18T12:26:38.494Z,83.14
2018-10-18T12:27:48.786Z,83.42
2018-10-18T12:28:59.015Z,82.75
2018-10-18T12:30:09.444Z,82.85
2018-10-18T12:31:19.308Z,82.85
2018-10-18T12:32:29.191Z,82.65
2018-10-18T12:33:39.335Z,82.85
2018-10-18T12:34:49.464Z,82.75
2018-10-18T12:35:59.701Z,82.75
2018-10-18T12:37:09.826Z,82.27
2018-10-18T12:38:20.112Z,82.65
2018-10-18T12:39:30.366Z,82.37
2018-10-18T12:40:40.987Z,82.27
2018-10-18T12:41:51.546Z,82.56
2018-10-18T12:43:02.085Z,82.56
2018-10-18T12:44:12.496Z,82.37
2018-10-18T12:45:23.086Z,82.37
2018-10-18T12:46:33.209Z,82.27
2018-10-18T12:47:43.338Z,82.75
2018-10-18T12:48:53.488Z,82.56
2018-10-18T12:50:03.782Z,82.75
2018-10-18T12:51:14.573Z,82.75
2018-10-18T12:52:24.723Z,82.65
2018-10-18T12:53:34.846Z,82.46
2018-10-18T12:54:45.185Z,82.27
2018-10-18T12:55:55.378Z,81.89
2018-10-18T12:57:05.676Z,81.79
2018-10-18T12:58:15.817Z,81.79
2018-10-18T12:59:25.986Z,82.27
2018-10-18T13:00:36.122Z,82.18
2018-10-18T13:01:46.275Z,82.18
2018-10-18T13:02:56.309Z,81.85
2018-10-18T13:04:06.441Z,81.98
2018-10-18T13:05:16.588Z,81.98
2018-10-18T13:06:26.734Z,81.79
2018-10-18T13:07:36.881Z,82.56
2018-10-18T13:08:46.644Z,82.14
2018-10-18T13:09:56.853Z,82.46
2018-10-18T13:11:07.014Z,82.46
2018-10-18T13:12:17.403Z,82.27
2018-10-18T13:13:28.747Z,82.37
2018-10-18T13:14:38.898Z,81.7
2018-10-18T13:15:49.071Z,81.98
2018-10-18T13:16:59.227Z,82.18
2018-10-18T13:18:09.399Z,82.27
2018-10-18T13:19:20.352Z,81.89
2018-10-18T13:20:30.492Z,81.98
2018-10-18T13:21:40.626Z,81.7
2018-10-18T13:22:50.984Z,81.98
2018-10-18T13:24:01.224Z,82.27
2018-10-18T13:25:12.054Z,82.27
2018-10-18T13:26:22.531Z,81.98
2018-10-18T13:27:32.656Z,82.08
2018-10-18T13:28:42.787Z,81.98
2018-10-18T13:29:53.018Z,81.79
2018-10-18T13:31:03.240Z,81.89
2018-10-18T13:32:13.641Z,81.79
2018-10-18T13:33:23.970Z,81.51
2018-10-18T13:34:33.850Z,81.6
2018-10-18T13:35:43.982Z,81.79
2018-10-18T13:36:54.095Z,81.89
2018-10-18T13:38:04.357Z,81.7
2018-10-18T13:39:15.090Z,81.6
2018-10-18T13:40:25.515Z,81.51
2018-10-18T13:41:35.844Z,81.22
2018-10-18T13:42:45.755Z,81.22
2018-10-18T13:43:55.976Z,81.41
2018-10-18T13:45:06.045Z,81.22
2018-10-18T13:46:16.517Z,81.31
2018-10-18T13:47:26.840Z,81.51
2018-10-18T13:48:36.999Z,81.41
2018-10-18T13:49:47.230Z,81.31
2018-10-18T13:50:57.485Z,81.51
2018-10-18T13:52:07.266Z,81.22
2018-10-18T13:53:17.398Z,81.6
2018-10-18T13:54:27.188Z,81.41
2018-10-18T13:55:37.334Z,81.7
2018-10-18T13:56:47.512Z,81.51
2018-10-18T13:57:57.676Z,81.51
2018-10-18T13:59:08.020Z,81.41
2018-10-18T14:00:18.956Z,81.31
2018-10-18T14:01:29.663Z,81.22
2018-10-18T14:02:39.824Z,81.12
2018-10-18T14:03:49.700Z,81.22
2018-10-18T14:04:59.984Z,81.6
2018-10-18T14:06:10.550Z,81.41
2018-10-18T14:07:20.761Z,80.93
2018-10-18T14:08:31.241Z,80.55
2018-10-18T14:09:42.184Z,80.55
2018-10-18T14:10:52.382Z,81.22
2018-10-18T14:12:02.607Z,81.12
2018-10-18T14:13:12.485Z,81.12
2018-10-18T14:14:22.635Z,81.41
2018-10-18T14:15:32.795Z,81.41
2018-10-18T14:16:42.954Z,81.41
2018-10-18T14:17:53.198Z,81.41
2018-10-18T14:19:03.968Z,81.12
2018-10-18T14:20:14.280Z,81.41
2018-10-18T14:21:24.680Z,81.12
2018-10-18T14:22:34.817Z,81.41
2018-10-18T14:23:44.947Z,81.22
2018-10-18T14:24:54.846Z,81.31
2018-10-18T14:26:05.119Z,81.41
2018-10-18T14:27:15.704Z,81.41
2018-10-18T14:28:25.872Z,81.12
2018-10-18T14:29:35.763Z,81.51
2018-10-18T14:30:46.107Z,81.51
2018-10-18T14:31:56.812Z,81.31
2018-10-18T14:33:07.156Z,81.12
2018-10-18T14:34:17.289Z,81.31
2018-10-18T14:35:27.445Z,81.12
2018-10-18T14:36:37.602Z,80.93
2018-10-18T14:37:47.784Z,80.83
2018-10-18T14:38:58.124Z,80.83
2018-10-18T14:40:08.839Z,81.12
2018-10-18T14:41:19.249Z,80.74
2018-10-18T14:42:29.462Z,80.83
2018-10-18T14:43:39.627Z,80.55
2018-10-18T14:44:50.184Z,80.64
2018-10-18T14:46:00.894Z,80.83
2018-10-18T14:47:11.225Z,80.45
2018-10-18T14:48:22.183Z,80.55
2018-10-18T14:49:32.343Z,80.45
2018-10-18T14:50:42.778Z,80.26
2018-10-18T14:51:53.003Z,80.16
2018-10-18T14:53:03.390Z,80.16
2018-10-18T14:54:13.884Z,80.16
2018-10-18T14:55:24.017Z,80.35
2018-10-18T14:56:34.193Z,79.59
2018-10-18T14:57:44.330Z,80.07
2018-10-18T14:58:54.477Z,79.97
2018-10-18T15:00:04.806Z,79.97
2018-10-18T15:01:14.972Z,79.88
2018-10-18T15:02:25.143Z,79.59
2018-10-18T15:03:35.376Z,79.68
2018-10-18T15:04:45.557Z,79.59
2018-10-18T15:05:55.982Z,79.68
2018-10-18T15:07:06.149Z,79.39
2018-10-18T15:08:16.493Z,79.68
2018-10-18T15:09:26.429Z,79.78
2018-10-18T15:10:36.597Z,79.59
2018-10-18T15:11:46.757Z,79.97
2018-10-18T15:12:56.907Z,79.97
2018-10-18T15:14:06.975Z,79.97